Time;durP1;ratioP1;P1;durP2;ratioP2;P2;SDS_P1;SDS_P2;PMS_P1;PMS_P2;Temp;Humidity;BMP_temperature;BMP_pressure;BME280_temperature;BME280_humidity;BME280_pressure;Samples;Min_cycle;Max_cycle;Signal;HPM_P1;HPM_P2
2022/05/15 00:02:35;;;;;;;12.30;9.87;;;;;;;;;;5058460;28;20412;-86
2022/05/15 00:05:02;;;;;;;17.03;11.87;;;;;;;;;;5040602;28;20781;-86
2022/05/15 00:07:28;;;;;;;11.87;10.20;;;;;;;;;;5040160;28;20409;-85
2022/05/15 00:09:54;;;;;;;16.07;10.93;;;;;;;;;;5057969;28;20467;-85
2022/05/15 00:12:20;;;;;;;14.07;10.57;;;;;;;;;;5058055;28;20412;-86
2022/05/15 00:14:47;;;;;;;16.23;10.40;;;;;;;;;;5058625;28;20958;-86
2022/05/15 00:17:13;;;;;;;12.83;9.63;;;;;;;;;;5039977;28;20409;-86
2022/05/15 00:19:39;;;;;;;16.23;9.80;;;;;;;;;;5058497;28;20410;-85
2022/05/15 00:22:06;;;;;;;12.97;11.67;;;;;;;;;;5058279;28;20479;-85
2022/05/15 00:24:33;;;;;;;11.73;9.80;;;;;;;;;;5049440;28;20408;-85
2022/05/15 00:26:59;;;;;;;11.20;9.90;;;;;;;;;;5045128;28;20401;-86
2022/05/15 00:29:25;;;;;;;13.10;10.57;;;;;;;;;;5057405;28;20466;-86
2022/05/15 00:31:51;;;;;;;11.03;9.87;;;;;;;;;;5040256;28;20529;-85
2022/05/15 00:34:17;;;;;;;11.40;10.30;;;;;;;;;;5059860;28;20404;-86
2022/05/15 00:36:43;;;;;;;14.63;11.17;;;;;;;;;;5044614;28;20776;-85
2022/05/15 00:39:09;;;;;;;13.30;10.50;;;;;;;;;;5045235;28;21014;-86
2022/05/15 00:41:37;;;;;;;13.87;10.47;;;;;;;;;;5071269;28;20944;-84
2022/05/15 00:44:04;;;;;;;17.10;10.83;;;;;;;;;;5062142;28;20512;-86
2022/05/15 00:46:38;;;;;;;15.30;10.13;;;;;;;;;;5056297;28;20417;-85
2022/05/15 00:49:05;;;;;;;12.40;10.53;;;;;;;;;;5045469;28;20406;-86
2022/05/15 00:51:36;;;;;;;10.83;9.73;;;;;;;;;;5045101;28;20505;-86
2022/05/15 00:54:21;;;;;;;14.43;9.60;;;;;;;;;;5062306;28;20421;-86
2022/05/15 00:56:50;;;;;;;11.20;9.60;;;;;;;;;;5064890;28;20402;-86
2022/05/15 00:59:18;;;;;;;14.73;10.70;;;;;;;;;;5063264;28;21010;-86
2022/05/15 01:01:44;;;;;;;13.70;10.33;;;;;;;;;;5061889;28;20448;-86
2022/05/15 01:04:10;;;;;;;16.70;10.33;;;;;;;;;;5044109;28;20413;-85
2022/05/15 01:06:37;;;;;;;16.50;11.20;;;;;;;;;;5043076;28;20659;-86
2022/05/15 01:09:04;;;;;;;11.57;9.40;;;;;;;;;;5042883;28;20413;-87
2022/05/15 01:11:31;;;;;;;11.73;9.07;;;;;;;;;;5043234;28;20436;-86
2022/05/15 01:13:57;;;;;;;17.67;10.77;;;;;;;;;;5060609;28;20888;-86
2022/05/15 01:16:25;;;;;;;15.00;11.40;;;;;;;;;;5060883;28;20409;-86
2022/05/15 01:18:55;;;;;;;17.07;11.83;;;;;;;;;;5060276;28;20456;-86
2022/05/15 01:21:24;;;;;;;15.27;10.80;;;;;;;;;;5042728;28;20433;-86
2022/05/15 01:23:50;;;;;;;15.80;10.70;;;;;;;;;;5060391;28;20412;-86
2022/05/15 01:26:17;;;;;;;15.00;10.70;;;;;;;;;;5060678;28;20401;-86
2022/05/15 01:28:46;;;;;;;10.50;9.40;;;;;;;;;;5060438;28;20478;-85
2022/05/15 01:31:13;;;;;;;13.10;9.50;;;;;;;;;;5061333;28;20422;-86
2022/05/15 01:33:39;;;;;;;14.30;11.00;;;;;;;;;;5042638;28;20413;-86
2022/05/15 01:36:06;;;;;;;11.40;10.20;;;;;;;;;;5041819;28;20822;-86
2022/05/15 01:38:32;;;;;;;12.97;9.70;;;;;;;;;;5042014;28;20530;-85
2022/05/15 01:40:58;;;;;;;17.03;9.80;;;;;;;;;;5061229;28;20423;-85
2022/05/15 01:43:24;;;;;;;14.13;11.00;;;;;;;;;;5061302;28;20402;-84
2022/05/15 01:45:51;;;;;;;13.40;11.27;;;;;;;;;;5060272;28;20393;-84
2022/05/15 01:48:17;;;;;;;16.27;12.90;;;;;;;;;;5060784;28;20917;-85
2022/05/15 01:50:43;;;;;;;17.83;13.80;;;;;;;;;;5043450;28;20454;-84
2022/05/15 01:53:10;;;;;;;24.57;14.70;;;;;;;;;;5024098;28;20446;-86
2022/05/15 01:55:36;;;;;;;15.93;11.97;;;;;;;;;;5024000;28;20544;-86
2022/05/15 01:58:02;;;;;;;13.60;10.37;;;;;;;;;;5041601;28;20454;-86
2022/05/15 02:00:28;;;;;;;16.43;10.50;;;;;;;;;;5041041;28;20460;-85
2022/05/15 02:02:55;;;;;;;11.43;10.33;;;;;;;;;;5041575;28;20458;-85
2022/05/15 02:05:22;;;;;;;14.50;11.00;;;;;;;;;;5024369;28;20445;-84
2022/05/15 02:07:48;;;;;;;11.40;9.93;;;;;;;;;;5024721;28;20501;-85
2022/05/15 02:10:15;;;;;;;11.40;9.10;;;;;;;;;;5041836;28;20417;-86
2022/05/15 02:12:41;;;;;;;12.70;9.57;;;;;;;;;;5022115;28;20506;-86
2022/05/15 02:15:07;;;;;;;13.47;10.23;;;;;;;;;;5022921;28;20472;-86
2022/05/15 02:17:34;;;;;;;12.87;10.67;;;;;;;;;;5040401;28;20450;-85
2022/05/15 02:20:00;;;;;;;17.47;12.23;;;;;;;;;;5040205;28;20434;-86
2022/05/15 02:22:26;;;;;;;20.70;13.00;;;;;;;;;;5040308;28;20402;-87
2022/05/15 02:24:52;;;;;;;28.60;16.37;;;;;;;;;;5040016;28;20430;-87
2022/05/15 02:27:18;;;;;;;27.57;18.47;;;;;;;;;;5040340;28;20398;-87
2022/05/15 02:29:44;;;;;;;22.97;15.67;;;;;;;;;;5040265;28;20433;-86
2022/05/15 02:32:10;;;;;;;15.43;10.70;;;;;;;;;;5040829;28;20426;-86
2022/05/15 02:34:36;;;;;;;15.50;10.03;;;;;;;;;;5040342;28;20402;-87
2022/05/15 02:37:02;;;;;;;28.17;19.00;;;;;;;;;;5022922;28;20402;-85
2022/05/15 02:39:29;;;;;;;24.60;15.63;;;;;;;;;;5021955;28;20454;-87
2022/05/15 02:41:55;;;;;;;13.70;10.53;;;;;;;;;;5022145;28;20430;-86
2022/05/15 02:44:21;;;;;;;11.50;9.00;;;;;;;;;;5039671;28;20402;-87
2022/05/15 02:46:47;;;;;;;10.53;8.70;;;;;;;;;;5039638;28;20399;-87
2022/05/15 02:51:57;;;;;;;16.40;11.73;;;;;;;;;;5039208;28;20424;-87
2022/05/15 02:54:23;;;;;;;14.40;10.40;;;;;;;;;;5025021;28;20413;-87
2022/05/15 02:56:50;;;;;;;15.47;11.70;;;;;;;;;;5045779;28;20409;-86
2022/05/15 02:59:17;;;;;;;11.00;8.77;;;;;;;;;;5022052;28;20477;-86
2022/05/15 03:01:43;;;;;;;9.53;8.17;;;;;;;;;;5039793;28;20440;-86
2022/05/15 03:04:09;;;;;;;11.63;9.53;;;;;;;;;;5022017;28;20418;-87
2022/05/15 03:06:35;;;;;;;13.97;10.13;;;;;;;;;;5021802;28;20493;-85
2022/05/15 03:09:01;;;;;;;9.90;8.20;;;;;;;;;;5022310;28;20422;-85
2022/05/15 03:11:27;;;;;;;10.93;9.67;;;;;;;;;;5039498;28;20513;-85
2022/05/15 03:13:53;;;;;;;13.93;9.70;;;;;;;;;;5021374;28;20505;-86
2022/05/15 03:16:20;;;;;;;13.07;9.40;;;;;;;;;;5039633;28;20780;-86
2022/05/15 03:18:47;;;;;;;30.43;17.20;;;;;;;;;;5040413;28;20788;-86
2022/05/15 03:21:28;;;;;;;19.70;13.10;;;;;;;;;;5022191;28;20434;-86
2022/05/15 03:23:55;;;;;;;12.70;10.17;;;;;;;;;;5021996;28;20442;-85
2022/05/15 03:26:21;;;;;;;10.93;8.40;;;;;;;;;;5038426;28;20789;-85
2022/05/15 03:28:47;;;;;;;11.50;8.43;;;;;;;;;;5034796;28;20457;-86
2022/05/15 03:31:13;;;;;;;13.73;8.40;;;;;;;;;;5039679;28;20426;-86
2022/05/15 03:33:40;;;;;;;9.87;8.37;;;;;;;;;;5021364;28;20440;-87
2022/05/15 03:36:10;;;;;;;13.03;9.10;;;;;;;;;;5021337;28;20402;-86
2022/05/15 03:38:37;;;;;;;12.73;9.90;;;;;;;;;;5039534;28;20434;-86
2022/05/15 03:41:03;;;;;;;13.67;10.70;;;;;;;;;;5021303;28;20434;-86
2022/05/15 03:43:29;;;;;;;10.93;9.30;;;;;;;;;;5021771;28;20462;-86
2022/05/15 03:45:55;;;;;;;12.77;9.03;;;;;;;;;;5032041;28;20418;-83
2022/05/15 03:48:21;;;;;;;14.03;9.30;;;;;;;;;;5034242;28;20422;-84
2022/05/15 03:50:47;;;;;;;14.17;9.93;;;;;;;;;;5038764;28;20458;-84
2022/05/15 03:53:13;;;;;;;9.80;8.33;;;;;;;;;;5038824;28;20452;-84
2022/05/15 03:55:39;;;;;;;9.93;7.80;;;;;;;;;;5023018;28;20448;-86
2022/05/15 03:58:05;;;;;;;7.20;6.50;;;;;;;;;;5021492;28;20457;-86
2022/05/15 04:00:31;;;;;;;7.90;7.00;;;;;;;;;;5047953;22;20482;-82
2022/05/15 04:02:57;;;;;;;7.93;6.63;;;;;;;;;;5055932;28;20441;-82
2022/05/15 04:05:23;;;;;;;8.23;7.40;;;;;;;;;;5058463;28;20402;-82
2022/05/15 04:07:50;;;;;;;10.83;8.47;;;;;;;;;;5057161;28;20393;-80
2022/05/15 04:10:18;;;;;;;8.23;7.37;;;;;;;;;;5055580;28;20455;-82
2022/05/15 04:12:44;;;;;;;10.33;6.93;;;;;;;;;;5056235;28;20461;-82
2022/05/15 04:15:11;;;;;;;10.30;6.90;;;;;;;;;;5056197;28;20497;-82
2022/05/15 04:17:41;;;;;;;10.60;8.00;;;;;;;;;;5056286;28;20423;-82
2022/05/15 04:20:07;;;;;;;9.83;7.40;;;;;;;;;;5056038;28;20498;-82
2022/05/15 04:22:33;;;;;;;8.30;7.50;;;;;;;;;;5055648;28;20432;-82
2022/05/15 04:24:59;;;;;;;11.93;7.03;;;;;;;;;;5055759;28;20410;-82
2022/05/15 04:27:25;;;;;;;8.93;7.70;;;;;;;;;;5055335;28;20413;-82
2022/05/15 04:29:52;;;;;;;7.83;7.03;;;;;;;;;;5055619;28;20413;-81
2022/05/15 04:32:18;;;;;;;7.17;6.03;;;;;;;;;;5055878;28;20491;-81
2022/05/15 04:34:44;;;;;;;8.60;7.70;;;;;;;;;;5060567;28;20409;-82
2022/05/15 04:37:10;;;;;;;7.43;6.37;;;;;;;;;;5060938;28;20437;-82
2022/05/15 04:39:36;;;;;;;7.97;6.63;;;;;;;;;;5058253;28;20394;-82
2022/05/15 04:42:02;;;;;;;10.73;6.93;;;;;;;;;;5058503;28;20422;-82
2022/05/15 04:44:29;;;;;;;7.67;6.87;;;;;;;;;;5058064;28;20436;-82
2022/05/15 04:46:55;;;;;;;10.33;6.93;;;;;;;;;;5058505;28;20751;-82
2022/05/15 04:49:21;;;;;;;8.60;6.90;;;;;;;;;;5059117;28;20451;-82
2022/05/15 04:51:47;;;;;;;8.67;6.37;;;;;;;;;;5058816;28;20429;-82
2022/05/15 04:54:13;;;;;;;8.60;7.50;;;;;;;;;;5058892;28;20398;-82
2022/05/15 04:56:40;;;;;;;9.27;6.70;;;;;;;;;;5058893;28;20402;-82
2022/05/15 04:59:06;;;;;;;9.87;7.00;;;;;;;;;;5058818;28;20539;-82
2022/05/15 05:01:33;;;;;;;9.90;6.30;;;;;;;;;;5057857;28;20433;-82
2022/05/15 05:03:59;;;;;;;8.83;6.80;;;;;;;;;;5057026;28;20428;-82
2022/05/15 05:06:25;;;;;;;8.47;6.40;;;;;;;;;;5056347;28;20406;-82
2022/05/15 05:08:52;;;;;;;7.50;6.47;;;;;;;;;;5056341;28;20453;-82
2022/05/15 05:11:18;;;;;;;7.73;6.93;;;;;;;;;;5056079;28;20433;-82
2022/05/15 05:13:44;;;;;;;13.40;6.90;;;;;;;;;;5055418;28;20405;-82
2022/05/15 05:16:11;;;;;;;8.50;6.43;;;;;;;;;;5055571;28;20821;-82
2022/05/15 05:18:37;;;;;;;10.70;6.90;;;;;;;;;;5055770;28;20470;-82
2022/05/15 05:21:03;;;;;;;8.30;7.00;;;;;;;;;;5056783;28;20921;-82
2022/05/15 05:23:29;;;;;;;7.57;6.20;;;;;;;;;;5060354;28;20397;-82
2022/05/15 05:25:56;;;;;;;9.00;6.33;;;;;;;;;;5061297;28;20784;-82
2022/05/15 05:28:22;;;;;;;8.07;6.27;;;;;;;;;;5060461;28;20445;-82
2022/05/15 05:30:48;;;;;;;8.63;6.33;;;;;;;;;;5057580;28;20413;-81
2022/05/15 05:33:14;;;;;;;7.90;6.03;;;;;;;;;;5057948;28;20451;-82
2022/05/15 05:35:40;;;;;;;7.10;6.23;;;;;;;;;;5058826;28;20497;-82
2022/05/15 05:38:07;;;;;;;7.03;5.90;;;;;;;;;;5059260;28;20401;-82
2022/05/15 05:40:33;;;;;;;6.67;5.53;;;;;;;;;;5058375;28;20414;-82
2022/05/15 05:42:59;;;;;;;8.00;6.40;;;;;;;;;;5058896;28;20452;-83
2022/05/15 05:45:25;;;;;;;12.17;6.70;;;;;;;;;;5059115;28;20413;-82
2022/05/15 05:47:51;;;;;;;7.07;6.03;;;;;;;;;;5058891;28;20445;-81
2022/05/15 05:50:19;;;;;;;6.13;5.53;;;;;;;;;;5059935;28;20413;-82
2022/05/15 05:52:45;;;;;;;10.13;6.30;;;;;;;;;;5066772;28;20452;-81
2022/05/15 05:55:12;;;;;;;8.13;6.43;;;;;;;;;;5066584;28;20408;-83
2022/05/15 05:57:39;;;;;;;6.27;5.67;;;;;;;;;;5062503;28;20417;-82
2022/05/15 06:00:06;;;;;;;6.50;5.67;;;;;;;;;;5061059;28;20425;-82
2022/05/15 06:02:32;;;;;;;7.20;6.13;;;;;;;;;;5061146;28;20434;-83
2022/05/15 06:04:58;;;;;;;7.50;5.70;;;;;;;;;;5061809;28;20910;-83
2022/05/15 06:07:26;;;;;;;8.77;6.10;;;;;;;;;;5061216;28;20470;-83
2022/05/15 06:09:52;;;;;;;7.90;5.33;;;;;;;;;;5061495;28;20433;-83
2022/05/15 06:12:20;;;;;;;10.93;6.30;;;;;;;;;;5062409;28;20906;-82
2022/05/15 06:14:47;;;;;;;7.87;6.77;;;;;;;;;;5043204;28;20501;-83
2022/05/15 06:17:13;;;;;;;6.27;5.57;;;;;;;;;;5059466;28;20417;-83
2022/05/15 06:19:40;;;;;;;8.50;6.63;;;;;;;;;;5062419;28;20431;-81
2022/05/15 06:22:07;;;;;;;6.03;5.20;;;;;;;;;;5061473;28;20429;-83
2022/05/15 06:24:33;;;;;;;5.90;5.30;;;;;;;;;;5061205;28;20898;-83
2022/05/15 06:27:02;;;;;;;5.70;4.83;;;;;;;;;;5061353;28;20451;-83
2022/05/15 06:29:28;;;;;;;6.67;5.67;;;;;;;;;;5048386;28;20471;-84
2022/05/15 06:31:54;;;;;;;10.17;4.60;;;;;;;;;;5041088;28;20440;-85
2022/05/15 06:34:21;;;;;;;7.00;5.80;;;;;;;;;;5060047;28;20422;-83
2022/05/15 06:36:47;;;;;;;10.60;5.37;;;;;;;;;;5061148;28;20405;-84
2022/05/15 06:39:13;;;;;;;6.90;5.50;;;;;;;;;;5061872;28;20413;-84
2022/05/15 06:41:39;;;;;;;6.33;5.10;;;;;;;;;;5030163;28;20438;-84
2022/05/15 06:44:05;;;;;;;7.43;5.30;;;;;;;;;;5041794;28;20846;-83
2022/05/15 06:46:32;;;;;;;7.77;4.87;;;;;;;;;;5044683;28;20418;-84
2022/05/15 06:48:58;;;;;;;6.53;5.00;;;;;;;;;;5044364;28;20457;-83
2022/05/15 06:51:24;;;;;;;7.83;5.30;;;;;;;;;;5049800;28;20421;-83
2022/05/15 06:53:50;;;;;;;6.73;4.90;;;;;;;;;;5061273;28;20394;-83
2022/05/15 06:59:05;;;;;;;6.23;4.77;;;;;;;;;;5041069;28;20433;-83
2022/05/15 07:01:31;;;;;;;6.83;5.00;;;;;;;;;;5043098;28;20462;-83
2022/05/15 07:03:57;;;;;;;6.03;4.40;;;;;;;;;;5041299;28;20399;-83
2022/05/15 07:06:23;;;;;;;5.93;4.73;;;;;;;;;;5040792;28;20751;-83
2022/05/15 07:08:50;;;;;;;6.47;4.67;;;;;;;;;;5042903;28;20485;-84
2022/05/15 07:11:16;;;;;;;7.10;5.10;;;;;;;;;;5061545;28;20449;-84
2022/05/15 07:13:43;;;;;;;6.20;4.03;;;;;;;;;;5060705;28;20428;-84
2022/05/15 07:16:09;;;;;;;6.03;3.90;;;;;;;;;;5060547;28;20401;-83
2022/05/15 07:18:36;;;;;;;9.20;4.13;;;;;;;;;;5059908;28;20417;-83
2022/05/15 07:21:02;;;;;;;7.83;4.57;;;;;;;;;;5062601;28;20421;-84
2022/05/15 07:23:28;;;;;;;7.73;4.07;;;;;;;;;;5060474;28;20410;-83
2022/05/15 07:25:55;;;;;;;8.30;4.30;;;;;;;;;;5060792;28;20413;-83
2022/05/15 07:28:21;;;;;;;7.63;4.30;;;;;;;;;;5042835;28;20459;-82
2022/05/15 07:30:48;;;;;;;4.87;3.63;;;;;;;;;;5063647;28;20457;-83
2022/05/15 07:33:14;;;;;;;4.40;3.27;;;;;;;;;;5073530;28;20421;-83
2022/05/15 07:35:40;;;;;;;5.40;4.13;;;;;;;;;;5045432;28;20515;-83
2022/05/15 07:38:06;;;;;;;10.93;3.97;;;;;;;;;;5046867;28;20413;-82
2022/05/15 07:40:32;;;;;;;4.13;3.57;;;;;;;;;;5056858;28;20408;-82
2022/05/15 07:42:58;;;;;;;4.33;3.80;;;;;;;;;;5056647;28;20394;-82
2022/05/15 07:45:24;;;;;;;5.23;3.40;;;;;;;;;;5055704;28;20398;-83
2022/05/15 07:47:50;;;;;;;6.70;3.20;;;;;;;;;;5056537;28;20461;-83
2022/05/15 07:50:16;;;;;;;5.93;3.60;;;;;;;;;;5055512;28;20406;-83
2022/05/15 07:52:42;;;;;;;5.23;3.50;;;;;;;;;;5055310;28;20536;-82
2022/05/15 07:55:09;;;;;;;7.53;4.17;;;;;;;;;;5056732;28;20408;-82
2022/05/15 07:57:35;;;;;;;5.53;2.93;;;;;;;;;;5058041;28;20405;-83
2022/05/15 08:00:05;;;;;;;5.47;3.73;;;;;;;;;;5058357;28;20909;-83
2022/05/15 08:02:32;;;;;;;4.90;3.20;;;;;;;;;;5058262;28;20445;-83
2022/05/15 08:08:01;;;;;;;6.20;3.53;;;;;;;;;;5063972;28;20439;-83
2022/05/15 08:10:27;;;;;;;5.90;3.40;;;;;;;;;;5064384;28;20412;-83
2022/05/15 08:12:54;;;;;;;6.00;3.40;;;;;;;;;;5063612;28;20402;-83
2022/05/15 08:15:21;;;;;;;6.43;3.20;;;;;;;;;;5045138;28;20440;-83
2022/05/15 08:17:49;;;;;;;4.97;3.10;;;;;;;;;;5063313;28;20419;-83
2022/05/15 08:25:45;;;;;;;7.13;3.27;;;;;;;;;;5062003;28;20400;-83
2022/05/15 08:28:12;;;;;;;6.10;2.87;;;;;;;;;;5061470;28;20457;-83
2022/05/15 08:30:38;;;;;;;9.27;3.37;;;;;;;;;;5059385;28;20485;-83
2022/05/15 08:33:05;;;;;;;7.40;3.07;;;;;;;;;;5059630;28;20516;-83
2022/05/15 08:35:31;;;;;;;3.17;2.80;;;;;;;;;;5042541;28;20777;-83
2022/05/15 08:37:57;;;;;;;5.73;3.20;;;;;;;;;;5061467;28;20406;-84
2022/05/15 08:40:30;;;;;;;5.27;3.47;;;;;;;;;;5059454;28;20795;-83
2022/05/15 08:42:56;;;;;;;7.33;3.20;;;;;;;;;;5059010;28;20402;-82
2022/05/15 08:45:31;;;;;;;5.47;2.77;;;;;;;;;;5059361;28;20424;-83
2022/05/15 08:48:00;;;;;;;6.03;3.00;;;;;;;;;;5060103;28;20436;-83
2022/05/15 08:50:28;;;;;;;7.10;3.13;;;;;;;;;;5058919;28;20405;-82
2022/05/15 08:52:54;;;;;;;6.20;3.00;;;;;;;;;;5059389;28;20913;-83
2022/05/15 08:55:25;;;;;;;5.20;3.60;;;;;;;;;;5061125;28;20393;-83
2022/05/15 08:57:56;;;;;;;4.73;2.20;;;;;;;;;;5063219;28;20405;-83
2022/05/15 09:00:28;;;;;;;4.27;2.60;;;;;;;;;;5063405;28;20408;-83
2022/05/15 09:02:54;;;;;;;5.47;2.03;;;;;;;;;;5059400;28;20889;-83
2022/05/15 09:05:20;;;;;;;3.23;1.83;;;;;;;;;;5058845;28;20398;-82
2022/05/15 09:07:54;;;;;;;3.83;2.20;;;;;;;;;;5058792;28;20809;-83
2022/05/15 09:10:24;;;;;;;7.70;2.13;;;;;;;;;;5041265;28;20933;-82
2022/05/15 09:13:07;;;;;;;8.43;2.40;;;;;;;;;;5042318;28;20394;-83
2022/05/15 09:15:35;;;;;;;6.73;2.70;;;;;;;;;;5059939;28;20398;-82
2022/05/15 09:18:05;;;;;;;5.10;2.73;;;;;;;;;;5059787;28;20412;-83
2022/05/15 09:20:58;;;;;;;6.90;2.20;;;;;;;;;;5060846;28;20409;-83
2022/05/15 09:23:26;;;;;;;4.13;2.57;;;;;;;;;;5042133;28;20428;-83
2022/05/15 09:25:59;;;;;;;7.10;2.53;;;;;;;;;;5043996;28;20898;-82
2022/05/15 09:28:27;;;;;;;5.30;2.77;;;;;;;;;;5043693;28;20492;-83
2022/05/15 09:30:54;;;;;;;3.50;2.33;;;;;;;;;;5061415;28;20425;-83
2022/05/15 09:33:44;;;;;;;3.90;2.30;;;;;;;;;;5063124;28;20470;-82
2022/05/15 09:36:18;;;;;;;4.87;2.40;;;;;;;;;;5064031;28;20398;-83
2022/05/15 09:38:44;;;;;;;4.80;2.73;;;;;;;;;;5061836;28;20409;-83
2022/05/15 09:44:03;;;;;;;4.27;2.67;;;;;;;;;;5062699;28;20481;-83
2022/05/15 09:46:30;;;;;;;9.13;2.87;;;;;;;;;;5062653;28;20402;-83
2022/05/15 09:49:06;;;;;;;5.47;2.93;;;;;;;;;;5064021;28;20448;-83
2022/05/15 09:51:44;;;;;;;4.10;2.43;;;;;;;;;;5063966;28;20421;-83
2022/05/15 09:54:30;;;;;;;4.47;2.60;;;;;;;;;;5063717;28;20963;-84
2022/05/15 09:57:08;;;;;;;4.77;2.43;;;;;;;;;;5047200;28;20418;-82
2022/05/15 09:59:35;;;;;;;4.50;2.20;;;;;;;;;;5046734;28;20456;-83
2022/05/15 10:02:01;;;;;;;4.30;2.47;;;;;;;;;;5092585;23;20528;-86
2022/05/15 10:04:32;;;;;;;7.13;3.03;;;;;;;;;;5056502;28;20400;-86
2022/05/15 10:07:03;;;;;;;5.77;3.23;;;;;;;;;;5061348;28;20761;-86
2022/05/15 10:09:34;;;;;;;5.10;2.90;;;;;;;;;;5044115;28;20477;-86
2022/05/15 10:12:09;;;;;;;4.77;3.00;;;;;;;;;;5061191;28;20425;-87
2022/05/15 10:14:35;;;;;;;4.77;2.80;;;;;;;;;;5062469;28;20488;-86
2022/05/15 10:17:02;;;;;;;4.27;3.10;;;;;;;;;;5062102;28;20443;-88
2022/05/15 10:19:48;;;;;;;4.40;2.40;;;;;;;;;;5063400;28;20780;-85
2022/05/15 10:22:21;;;;;;;4.23;2.40;;;;;;;;;;5063022;28;20410;-86
2022/05/15 10:24:48;;;;;;;5.00;2.87;;;;;;;;;;5045728;28;20409;-85
2022/05/15 10:27:14;;;;;;;7.93;2.50;;;;;;;;;;5061651;28;20402;-87
2022/05/15 10:29:58;;;;;;;4.10;2.67;;;;;;;;;;5062745;28;20445;-86
2022/05/15 10:32:40;;;;;;;7.03;3.50;;;;;;;;;;5045476;28;20942;-85
2022/05/15 10:35:07;;;;;;;6.40;3.00;;;;;;;;;;5045011;28;20414;-84
2022/05/15 10:38:00;;;;;;;5.57;3.10;;;;;;;;;;5046496;28;20409;-85
2022/05/15 10:40:31;;;;;;;4.40;2.40;;;;;;;;;;5044832;28;20428;-84
2022/05/15 10:43:18;;;;;;;4.80;2.60;;;;;;;;;;5062981;28;20441;-86
2022/05/15 10:45:48;;;;;;;4.43;2.83;;;;;;;;;;5053672;28;20909;-85
2022/05/15 10:48:20;;;;;;;3.83;2.63;;;;;;;;;;5101635;28;20455;-86
2022/05/15 10:50:46;;;;;;;4.67;2.80;;;;;;;;;;5089894;28;20503;-86
2022/05/15 10:58:56;;;;;;;4.47;2.70;;;;;;;;;;5081667;28;20384;-84
2022/05/15 11:01:24;;;;;;;4.17;3.00;;;;;;;;;;5080280;28;20471;-86
2022/05/15 11:04:06;;;;;;;4.03;2.57;;;;;;;;;;5080003;28;20810;-84
2022/05/15 11:06:47;;;;;;;5.53;2.80;;;;;;;;;;5062581;28;20920;-84
2022/05/15 11:09:26;;;;;;;5.53;2.50;;;;;;;;;;5080454;28;20510;-83
2022/05/15 11:11:52;;;;;;;6.20;3.30;;;;;;;;;;5080873;28;20507;-85
2022/05/15 11:14:18;;;;;;;4.17;2.67;;;;;;;;;;5062364;28;20409;-86
2022/05/15 11:16:48;;;;;;;3.53;3.07;;;;;;;;;;5062942;28;20917;-85
2022/05/15 11:19:21;;;;;;;5.10;2.30;;;;;;;;;;5080332;28;20409;-85
2022/05/15 11:22:06;;;;;;;5.77;2.83;;;;;;;;;;5080634;28;20474;-85
2022/05/15 11:24:32;;;;;;;3.77;2.93;;;;;;;;;;5081949;28;20446;-84
2022/05/15 11:27:04;;;;;;;5.13;3.17;;;;;;;;;;5062220;28;20495;-84
2022/05/15 11:29:31;;;;;;;4.20;2.60;;;;;;;;;;5061932;28;20459;-84
2022/05/15 11:31:58;;;;;;;5.23;2.87;;;;;;;;;;5062455;28;20437;-86
2022/05/15 11:34:44;;;;;;;4.00;2.93;;;;;;;;;;5080038;28;20411;-85
2022/05/15 11:37:30;;;;;;;5.17;3.23;;;;;;;;;;5039668;28;20900;-85
2022/05/15 11:39:59;;;;;;;3.60;2.73;;;;;;;;;;5048700;28;20413;-85
2022/05/15 11:42:28;;;;;;;7.00;2.83;;;;;;;;;;5062218;28;21008;-85
2022/05/15 11:44:54;;;;;;;5.47;3.10;;;;;;;;;;5080129;28;20397;-85
2022/05/15 11:47:25;;;;;;;4.10;2.60;;;;;;;;;;5079993;28;20923;-85
2022/05/15 11:50:17;;;;;;;7.43;2.83;;;;;;;;;;5059033;28;20451;-84
2022/05/15 11:53:04;;;;;;;6.27;3.07;;;;;;;;;;5045040;28;20435;-84
2022/05/15 11:55:49;;;;;;;5.07;3.13;;;;;;;;;;5076760;28;20409;-84
2022/05/15 11:58:20;;;;;;;5.83;2.90;;;;;;;;;;5077773;28;20401;-84
2022/05/15 12:00:59;;;;;;;3.47;2.10;;;;;;;;;;5060094;28;20408;-84
2022/05/15 12:03:40;;;;;;;4.83;2.50;;;;;;;;;;5078834;28;20958;-84
2022/05/15 12:06:14;;;;;;;4.00;2.83;;;;;;;;;;5081559;28;20400;-85
2022/05/15 12:08:41;;;;;;;3.20;2.63;;;;;;;;;;5066145;28;20449;-85
2022/05/15 12:11:13;;;;;;;7.20;2.77;;;;;;;;;;5084765;28;20474;-84
2022/05/15 12:13:40;;;;;;;6.17;2.97;;;;;;;;;;5076822;28;20401;-86
2022/05/15 12:16:34;;;;;;;5.67;3.00;;;;;;;;;;5094727;28;20405;-86
2022/05/15 12:19:05;;;;;;;7.77;2.70;;;;;;;;;;5079779;28;20457;-87
2022/05/15 12:21:37;;;;;;;3.60;2.30;;;;;;;;;;5063924;28;20774;-86
2022/05/15 12:27:08;;;;;;;7.10;2.97;;;;;;;;;;5083573;28;20420;-85
2022/05/15 12:29:53;;;;;;;4.93;2.80;;;;;;;;;;5066762;28;20448;-84
2022/05/15 12:32:38;;;;;;;3.80;2.43;;;;;;;;;;5086640;28;20507;-85
2022/05/15 12:35:14;;;;;;;4.10;2.40;;;;;;;;;;5090288;28;20396;-85
2022/05/15 12:38:07;;;;;;;4.30;2.50;;;;;;;;;;5086113;28;20737;-86
2022/05/15 12:40:37;;;;;;;3.40;2.20;;;;;;;;;;5082144;28;20419;-85
2022/05/15 12:43:17;;;;;;;4.83;3.00;;;;;;;;;;5066316;28;20424;-86
2022/05/15 12:45:43;;;;;;;3.23;2.40;;;;;;;;;;5066842;28;20397;-86
2022/05/15 12:48:11;;;;;;;4.07;2.33;;;;;;;;;;5066198;28;20799;-86
2022/05/15 12:50:47;;;;;;;3.30;2.27;;;;;;;;;;5065580;28;20413;-86
2022/05/15 12:53:18;;;;;;;5.20;2.50;;;;;;;;;;5065615;28;20431;-86
2022/05/15 12:55:44;;;;;;;4.47;2.63;;;;;;;;;;5066192;28;20462;-86
2022/05/15 12:58:10;;;;;;;4.30;2.57;;;;;;;;;;5065734;28;20412;-86
2022/05/15 13:00:38;;;;;;;3.90;2.30;;;;;;;;;;5084538;28;20396;-85
2022/05/15 13:03:06;;;;;;;6.70;3.20;;;;;;;;;;5083752;28;20447;-85
2022/05/15 13:05:37;;;;;;;4.77;2.50;;;;;;;;;;5086868;28;20400;-86
2022/05/15 13:08:05;;;;;;;4.40;2.47;;;;;;;;;;5101597;28;20432;-84
2022/05/15 13:10:32;;;;;;;4.97;2.93;;;;;;;;;;5084075;28;20408;-85
2022/05/15 13:13:14;;;;;;;3.17;2.30;;;;;;;;;;5084667;28;20802;-87
2022/05/15 13:15:45;;;;;;;6.00;2.97;;;;;;;;;;5085004;28;20407;-86
2022/05/15 13:18:11;;;;;;;7.23;2.50;;;;;;;;;;5083156;28;20400;-87
2022/05/15 13:20:39;;;;;;;3.17;2.30;;;;;;;;;;5083013;28;20404;-87
2022/05/15 13:23:07;;;;;;;5.70;2.47;;;;;;;;;;5083523;28;20932;-86
2022/05/15 13:25:34;;;;;;;5.27;3.30;;;;;;;;;;5065845;28;20409;-87
2022/05/15 13:28:00;;;;;;;3.53;2.13;;;;;;;;;;5065393;28;20472;-86
2022/05/15 13:30:28;;;;;;;4.67;2.27;;;;;;;;;;5084074;28;20435;-86
2022/05/15 13:32:58;;;;;;;3.73;1.90;;;;;;;;;;5065648;28;20424;-86
2022/05/15 13:35:33;;;;;;;3.60;2.40;;;;;;;;;;5084556;28;20428;-87
2022/05/15 13:38:11;;;;;;;3.27;1.90;;;;;;;;;;5083035;28;20392;-87
2022/05/15 13:43:28;;;;;;;3.00;1.90;;;;;;;;;;5083749;28;20962;-86
2022/05/15 13:46:01;;;;;;;4.23;2.77;;;;;;;;;;5065394;28;20401;-86
2022/05/15 13:48:28;;;;;;;3.80;2.27;;;;;;;;;;5065263;28;21113;-86
2022/05/15 13:50:57;;;;;;;4.07;2.50;;;;;;;;;;5066174;28;20463;-86
2022/05/15 13:53:26;;;;;;;4.43;2.17;;;;;;;;;;5065333;28;20407;-86
2022/05/15 13:55:55;;;;;;;4.10;2.30;;;;;;;;;;5066307;28;20434;-86
2022/05/15 13:58:22;;;;;;;4.70;2.43;;;;;;;;;;5084158;28;20404;-88
2022/05/15 14:01:04;;;;;;;4.20;2.23;;;;;;;;;;5084910;28;20408;-87
2022/05/15 14:03:32;;;;;;;8.20;2.23;;;;;;;;;;5083804;28;20423;-86
2022/05/15 14:06:13;;;;;;;5.00;2.03;;;;;;;;;;5082969;28;20468;-87
2022/05/15 14:08:54;;;;;;;3.90;2.10;;;;;;;;;;5083654;28;20448;-85
2022/05/15 14:11:20;;;;;;;5.17;1.93;;;;;;;;;;5084234;28;20428;-85
2022/05/15 14:13:46;;;;;;;4.47;2.30;;;;;;;;;;5083444;28;20397;-87
2022/05/15 14:16:14;;;;;;;4.57;2.30;;;;;;;;;;5082787;28;20411;-87
2022/05/15 14:18:40;;;;;;;3.87;2.07;;;;;;;;;;5082544;28;20542;-87
2022/05/15 14:21:27;;;;;;;3.67;1.80;;;;;;;;;;5094973;28;20399;-87
2022/05/15 14:23:53;;;;;;;4.13;2.30;;;;;;;;;;5067889;28;20416;-87
2022/05/15 14:26:22;;;;;;;4.43;2.40;;;;;;;;;;5061663;28;20440;-86
2022/05/15 14:28:50;;;;;;;4.00;2.27;;;;;;;;;;5080310;28;20408;-86
2022/05/15 14:31:16;;;;;;;2.70;2.10;;;;;;;;;;5083111;28;20448;-86
2022/05/15 14:33:44;;;;;;;3.90;2.00;;;;;;;;;;5084767;28;20777;-85
2022/05/15 14:36:14;;;;;;;3.10;2.00;;;;;;;;;;5086005;28;20434;-85
2022/05/15 14:38:41;;;;;;;2.83;1.90;;;;;;;;;;5085133;28;20440;-86
2022/05/15 14:41:08;;;;;;;3.50;2.27;;;;;;;;;;5068319;28;20436;-85
2022/05/15 14:43:35;;;;;;;2.80;2.07;;;;;;;;;;5067642;28;20413;-87
2022/05/15 14:46:02;;;;;;;5.50;2.67;;;;;;;;;;5085062;28;20405;-86
2022/05/15 14:48:30;;;;;;;3.80;1.87;;;;;;;;;;5065928;28;20412;-85
2022/05/15 14:50:57;;;;;;;2.30;1.60;;;;;;;;;;5083889;28;20404;-87
2022/05/15 14:53:25;;;;;;;2.80;1.90;;;;;;;;;;5066330;28;20408;-87
2022/05/15 14:56:10;;;;;;;3.83;2.03;;;;;;;;;;5086452;28;20405;-87
2022/05/15 14:58:37;;;;;;;3.60;2.00;;;;;;;;;;5086035;28;20508;-87
2022/05/15 15:01:03;;;;;;;3.00;1.90;;;;;;;;;;5067432;28;20409;-87
2022/05/15 15:03:30;;;;;;;2.83;1.73;;;;;;;;;;5067422;28;20412;-87
2022/05/15 15:05:56;;;;;;;2.93;2.20;;;;;;;;;;5085290;28;20424;-87
2022/05/15 15:08:24;;;;;;;5.03;2.10;;;;;;;;;;5085155;28;20405;-87
2022/05/15 15:10:53;;;;;;;4.50;2.00;;;;;;;;;;5066952;28;20408;-87
2022/05/15 15:13:19;;;;;;;3.60;2.10;;;;;;;;;;5085691;28;20405;-87
2022/05/15 15:15:45;;;;;;;6.27;2.73;;;;;;;;;;5084902;28;20452;-88
2022/05/15 15:18:12;;;;;;;3.70;2.20;;;;;;;;;;5067133;28;20451;-83